sensor_id;sensor_type;location;lat;lon;timestamp;P1;durP1;ratioP1;P2;durP2;ratioP2
74158;SDS011;62511;47.970;11.774;2023-06-22T00:01:52;14.30;;;5.47;;
74158;SDS011;62511;47.970;11.774;2023-06-22T00:04:18;11.23;;;4.93;;
74158;SDS011;62511;47.970;11.774;2023-06-22T00:06:44;9.38;;;4.72;;
74158;SDS011;62511;47.970;11.774;2023-06-22T00:09:10;11.52;;;5.25;;
74158;SDS011;62511;47.970;11.774;2023-06-22T00:11:37;14.60;;;4.72;;
74158;SDS011;62511;47.970;11.774;2023-06-22T00:14:03;12.88;;;4.72;;
74158;SDS011;62511;47.970;11.774;2023-06-22T00:16:29;12.13;;;5.70;;
74158;SDS011;62511;47.970;11.774;2023-06-22T00:18:55;15.57;;;5.32;;
74158;SDS011;62511;47.970;11.774;2023-06-22T00:21:23;9.90;;;6.00;;
74158;SDS011;62511;47.970;11.774;2023-06-22T00:23:49;13.40;;;5.90;;
74158;SDS011;62511;47.970;11.774;2023-06-22T00:26:15;9.52;;;5.38;;
74158;SDS011;62511;47.970;11.774;2023-06-22T00:28:42;13.45;;;5.72;;
74158;SDS011;62511;47.970;11.774;2023-06-22T00:31:08;11.73;;;5.88;;
74158;SDS011;62511;47.970;11.774;2023-06-22T00:33:34;15.20;;;5.35;;
74158;SDS011;62511;47.970;11.774;2023-06-22T00:36:00;12.95;;;5.53;;
74158;SDS011;62511;47.970;11.774;2023-06-22T00:38:28;12.95;;;6.00;;
74158;SDS011;62511;47.970;11.774;2023-06-22T00:40:54;10.75;;;5.40;;
74158;SDS011;62511;47.970;11.774;2023-06-22T00:43:20;12.77;;;5.50;;
74158;SDS011;62511;47.970;11.774;2023-06-22T00:45:46;12.38;;;5.72;;
74158;SDS011;62511;47.970;11.774;2023-06-22T00:48:12;14.38;;;5.60;;
74158;SDS011;62511;47.970;11.774;2023-06-22T00:50:39;12.15;;;5.93;;
74158;SDS011;62511;47.970;11.774;2023-06-22T00:53:06;13.52;;;6.00;;
74158;SDS011;62511;47.970;11.774;2023-06-22T00:55:42;11.85;;;5.93;;
74158;SDS011;62511;47.970;11.774;2023-06-22T00:58:10;13.77;;;5.57;;
74158;SDS011;62511;47.970;11.774;2023-06-22T01:00:37;10.70;;;6.00;;
74158;SDS011;62511;47.970;11.774;2023-06-22T01:03:03;14.50;;;6.20;;
74158;SDS011;62511;47.970;11.774;2023-06-22T01:05:33;15.63;;;6.20;;
74158;SDS011;62511;47.970;11.774;2023-06-22T01:13:07;11.07;;;5.47;;
74158;SDS011;62511;47.970;11.774;2023-06-22T01:15:38;10.88;;;5.10;;
74158;SDS011;62511;47.970;11.774;2023-06-22T01:18:05;10.25;;;4.82;;
74158;SDS011;62511;47.970;11.774;2023-06-22T01:20:34;8.30;;;4.10;;
74158;SDS011;62511;47.970;11.774;2023-06-22T01:25:46;10.43;;;4.35;;
74158;SDS011;62511;47.970;11.774;2023-06-22T01:30:58;10.30;;;4.25;;
74158;SDS011;62511;47.970;11.774;2023-06-22T01:33:32;9.00;;;4.50;;
74158;SDS011;62511;47.970;11.774;2023-06-22T01:36:00;12.25;;;5.22;;
74158;SDS011;62511;47.970;11.774;2023-06-22T01:38:26;11.80;;;4.93;;
74158;SDS011;62511;47.970;11.774;2023-06-22T01:40:53;10.32;;;4.43;;
74158;SDS011;62511;47.970;11.774;2023-06-22T01:58:41;6.40;;;3.40;;
74158;SDS011;62511;47.970;11.774;2023-06-22T02:01:11;10.30;;;3.63;;
74158;SDS011;62511;47.970;11.774;2023-06-22T02:03:41;8.57;;;3.72;;
74158;SDS011;62511;47.970;11.774;2023-06-22T02:06:10;8.68;;;3.97;;
74158;SDS011;62511;47.970;11.774;2023-06-22T02:08:53;8.32;;;3.75;;
74158;SDS011;62511;47.970;11.774;2023-06-22T02:11:21;8.02;;;4.00;;
74158;SDS011;62511;47.970;11.774;2023-06-22T02:13:47;8.27;;;3.42;;
74158;SDS011;62511;47.970;11.774;2023-06-22T02:16:13;9.13;;;3.92;;
74158;SDS011;62511;47.970;11.774;2023-06-22T02:18:50;8.05;;;4.00;;
74158;SDS011;62511;47.970;11.774;2023-06-22T02:21:17;6.65;;;3.65;;
74158;SDS011;62511;47.970;11.774;2023-06-22T02:23:43;8.48;;;3.90;;
74158;SDS011;62511;47.970;11.774;2023-06-22T02:26:09;8.55;;;3.88;;
74158;SDS011;62511;47.970;11.774;2023-06-22T02:28:35;10.27;;;4.25;;
74158;SDS011;62511;47.970;11.774;2023-06-22T02:31:01;10.82;;;4.20;;
74158;SDS011;62511;47.970;11.774;2023-06-22T02:33:27;7.82;;;3.63;;
74158;SDS011;62511;47.970;11.774;2023-06-22T02:35:53;11.35;;;4.72;;
74158;SDS011;62511;47.970;11.774;2023-06-22T02:38:19;8.70;;;4.18;;
74158;SDS011;62511;47.970;11.774;2023-06-22T02:40:45;8.52;;;4.10;;
74158;SDS011;62511;47.970;11.774;2023-06-22T02:43:12;8.73;;;4.07;;
74158;SDS011;62511;47.970;11.774;2023-06-22T02:45:38;8.93;;;3.90;;
74158;SDS011;62511;47.970;11.774;2023-06-22T02:48:04;11.50;;;4.28;;
74158;SDS011;62511;47.970;11.774;2023-06-22T02:50:30;9.43;;;4.13;;
74158;SDS011;62511;47.970;11.774;2023-06-22T02:52:58;10.93;;;4.40;;
74158;SDS011;62511;47.970;11.774;2023-06-22T02:55:24;9.27;;;4.20;;
74158;SDS011;62511;47.970;11.774;2023-06-22T02:57:50;10.00;;;4.20;;
74158;SDS011;62511;47.970;11.774;2023-06-22T03:00:18;9.90;;;3.72;;
74158;SDS011;62511;47.970;11.774;2023-06-22T03:05:10;7.40;;;3.45;;
74158;SDS011;62511;47.970;11.774;2023-06-22T03:07:39;11.13;;;4.60;;
74158;SDS011;62511;47.970;11.774;2023-06-22T03:12:31;6.43;;;4.00;;
74158;SDS011;62511;47.970;11.774;2023-06-22T03:14:57;8.30;;;4.43;;
74158;SDS011;62511;47.970;11.774;2023-06-22T03:17:23;10.13;;;3.95;;
74158;SDS011;62511;47.970;11.774;2023-06-22T03:19:49;8.60;;;4.65;;
74158;SDS011;62511;47.970;11.774;2023-06-22T03:22:15;8.85;;;4.15;;
74158;SDS011;62511;47.970;11.774;2023-06-22T03:24:41;8.23;;;4.15;;
74158;SDS011;62511;47.970;11.774;2023-06-22T03:27:07;7.63;;;3.80;;
74158;SDS011;62511;47.970;11.774;2023-06-22T03:29:33;9.43;;;4.47;;
74158;SDS011;62511;47.970;11.774;2023-06-22T03:31:59;9.60;;;4.05;;
74158;SDS011;62511;47.970;11.774;2023-06-22T03:34:25;9.40;;;4.13;;
74158;SDS011;62511;47.970;11.774;2023-06-22T03:36:51;10.02;;;4.20;;
74158;SDS011;62511;47.970;11.774;2023-06-22T03:39:17;8.65;;;4.45;;
74158;SDS011;62511;47.970;11.774;2023-06-22T03:41:43;6.72;;;4.43;;
74158;SDS011;62511;47.970;11.774;2023-06-22T03:44:09;9.25;;;4.32;;
74158;SDS011;62511;47.970;11.774;2023-06-22T03:46:37;8.95;;;4.43;;
74158;SDS011;62511;47.970;11.774;2023-06-22T03:49:03;10.07;;;4.10;;
74158;SDS011;62511;47.970;11.774;2023-06-22T03:51:30;8.27;;;4.10;;
74158;SDS011;62511;47.970;11.774;2023-06-22T03:56:22;7.75;;;3.92;;
74158;SDS011;62511;47.970;11.774;2023-06-22T03:58:48;8.80;;;4.03;;
74158;SDS011;62511;47.970;11.774;2023-06-22T04:01:14;9.07;;;3.80;;
74158;SDS011;62511;47.970;11.774;2023-06-22T04:03:42;9.10;;;3.72;;
74158;SDS011;62511;47.970;11.774;2023-06-22T04:06:08;9.27;;;4.35;;
74158;SDS011;62511;47.970;11.774;2023-06-22T04:08:34;6.88;;;4.00;;
74158;SDS011;62511;47.970;11.774;2023-06-22T04:11:00;7.65;;;4.10;;
74158;SDS011;62511;47.970;11.774;2023-06-22T04:13:26;5.72;;;3.53;;
74158;SDS011;62511;47.970;11.774;2023-06-22T04:15:52;6.95;;;4.07;;
74158;SDS011;62511;47.970;11.774;2023-06-22T04:18:18;9.32;;;4.38;;
74158;SDS011;62511;47.970;11.774;2023-06-22T04:20:44;9.38;;;4.47;;
74158;SDS011;62511;47.970;11.774;2023-06-22T04:23:11;11.20;;;5.00;;
74158;SDS011;62511;47.970;11.774;2023-06-22T04:25:37;7.55;;;4.65;;
74158;SDS011;62511;47.970;11.774;2023-06-22T04:28:03;7.20;;;4.10;;
74158;SDS011;62511;47.970;11.774;2023-06-22T04:30:29;10.48;;;4.78;;
74158;SDS011;62511;47.970;11.774;2023-06-22T04:32:58;8.55;;;4.45;;
74158;SDS011;62511;47.970;11.774;2023-06-22T04:35:25;10.20;;;5.10;;
74158;SDS011;62511;47.970;11.774;2023-06-22T04:37:52;10.30;;;4.35;;
74158;SDS011;62511;47.970;11.774;2023-06-22T04:40:20;8.65;;;4.15;;
74158;SDS011;62511;47.970;11.774;2023-06-22T04:42:46;9.02;;;4.63;;
74158;SDS011;62511;47.970;11.774;2023-06-22T04:45:18;8.90;;;4.53;;
74158;SDS011;62511;47.970;11.774;2023-06-22T04:47:44;10.70;;;5.05;;
74158;SDS011;62511;47.970;11.774;2023-06-22T04:50:10;8.55;;;4.22;;
74158;SDS011;62511;47.970;11.774;2023-06-22T04:52:37;11.57;;;4.90;;
74158;SDS011;62511;47.970;11.774;2023-06-22T04:55:03;7.28;;;4.35;;
74158;SDS011;62511;47.970;11.774;2023-06-22T04:57:29;9.23;;;4.93;;
74158;SDS011;62511;47.970;11.774;2023-06-22T04:59:59;10.50;;;5.00;;
74158;SDS011;62511;47.970;11.774;2023-06-22T05:02:38;12.38;;;5.20;;
74158;SDS011;62511;47.970;11.774;2023-06-22T05:05:04;7.30;;;4.72;;
74158;SDS011;62511;47.970;11.774;2023-06-22T05:07:33;10.18;;;5.18;;
74158;SDS011;62511;47.970;11.774;2023-06-22T05:09:59;10.98;;;5.18;;
74158;SDS011;62511;47.970;11.774;2023-06-22T05:12:25;10.10;;;4.82;;
74158;SDS011;62511;47.970;11.774;2023-06-22T05:14:51;9.02;;;4.68;;
74158;SDS011;62511;47.970;11.774;2023-06-22T05:17:17;8.10;;;4.15;;
74158;SDS011;62511;47.970;11.774;2023-06-22T05:19:44;8.60;;;5.47;;
74158;SDS011;62511;47.970;11.774;2023-06-22T05:22:13;7.35;;;4.38;;
74158;SDS011;62511;47.970;11.774;2023-06-22T05:24:39;8.25;;;4.88;;
74158;SDS011;62511;47.970;11.774;2023-06-22T05:27:05;9.23;;;4.55;;
74158;SDS011;62511;47.970;11.774;2023-06-22T05:29:31;14.40;;;5.38;;
74158;SDS011;62511;47.970;11.774;2023-06-22T05:31:57;10.73;;;4.70;;
74158;SDS011;62511;47.970;11.774;2023-06-22T05:34:23;10.90;;;4.63;;
74158;SDS011;62511;47.970;11.774;2023-06-22T05:36:49;8.98;;;4.75;;
74158;SDS011;62511;47.970;11.774;2023-06-22T05:39:15;11.15;;;4.82;;
74158;SDS011;62511;47.970;11.774;2023-06-22T05:41:41;7.40;;;4.50;;
74158;SDS011;62511;47.970;11.774;2023-06-22T05:44:10;8.05;;;4.95;;
74158;SDS011;62511;47.970;11.774;2023-06-22T05:46:36;9.63;;;4.78;;
74158;SDS011;62511;47.970;11.774;2023-06-22T05:49:02;10.93;;;5.20;;
74158;SDS011;62511;47.970;11.774;2023-06-22T05:51:28;9.68;;;4.90;;
74158;SDS011;62511;47.970;11.774;2023-06-22T05:53:54;11.65;;;4.80;;
74158;SDS011;62511;47.970;11.774;2023-06-22T05:56:20;10.23;;;4.40;;
74158;SDS011;62511;47.970;11.774;2023-06-22T05:58:46;7.18;;;4.68;;
74158;SDS011;62511;47.970;11.774;2023-06-22T06:01:12;9.38;;;4.72;;
74158;SDS011;62511;47.970;11.774;2023-06-22T06:03:40;7.95;;;4.45;;
74158;SDS011;62511;47.970;11.774;2023-06-22T06:06:06;9.65;;;4.68;;
74158;SDS011;62511;47.970;11.774;2023-06-22T06:08:32;10.25;;;4.97;;
74158;SDS011;62511;47.970;11.774;2023-06-22T06:10:59;9.15;;;4.72;;
74158;SDS011;62511;47.970;11.774;2023-06-22T06:13:25;11.93;;;5.38;;
74158;SDS011;62511;47.970;11.774;2023-06-22T06:15:51;9.23;;;4.30;;
74158;SDS011;62511;47.970;11.774;2023-06-22T06:18:19;10.10;;;4.68;;
74158;SDS011;62511;47.970;11.774;2023-06-22T06:20:45;12.30;;;5.20;;
74158;SDS011;62511;47.970;11.774;2023-06-22T06:23:12;10.63;;;5.05;;
74158;SDS011;62511;47.970;11.774;2023-06-22T06:25:38;9.20;;;5.00;;
74158;SDS011;62511;47.970;11.774;2023-06-22T06:28:04;9.20;;;4.88;;
74158;SDS011;62511;47.970;11.774;2023-06-22T06:30:30;11.30;;;4.85;;
74158;SDS011;62511;47.970;11.774;2023-06-22T06:32:56;14.15;;;5.20;;
74158;SDS011;62511;47.970;11.774;2023-06-22T06:35:22;10.00;;;5.43;;
74158;SDS011;62511;47.970;11.774;2023-06-22T06:37:48;12.77;;;5.80;;
74158;SDS011;62511;47.970;11.774;2023-06-22T06:40:15;9.13;;;5.15;;
74158;SDS011;62511;47.970;11.774;2023-06-22T06:42:42;11.05;;;4.60;;
74158;SDS011;62511;47.970;11.774;2023-06-22T06:45:15;10.65;;;4.75;;
74158;SDS011;62511;47.970;11.774;2023-06-22T06:47:42;11.43;;;5.07;;
74158;SDS011;62511;47.970;11.774;2023-06-22T06:50:08;12.73;;;4.90;;
74158;SDS011;62511;47.970;11.774;2023-06-22T06:55:00;9.77;;;4.88;;
74158;SDS011;62511;47.970;11.774;2023-06-22T06:57:27;12.50;;;4.80;;
74158;SDS011;62511;47.970;11.774;2023-06-22T06:59:54;13.10;;;5.35;;
74158;SDS011;62511;47.970;11.774;2023-06-22T07:02:21;10.32;;;5.22;;
74158;SDS011;62511;47.970;11.774;2023-06-22T07:04:47;9.57;;;5.25;;
74158;SDS011;62511;47.970;11.774;2023-06-22T07:09:39;13.70;;;5.15;;
74158;SDS011;62511;47.970;11.774;2023-06-22T07:12:06;11.60;;;4.90;;
74158;SDS011;62511;47.970;11.774;2023-06-22T07:16:58;12.48;;;5.07;;
74158;SDS011;62511;47.970;11.774;2023-06-22T07:19:25;11.45;;;5.55;;
74158;SDS011;62511;47.970;11.774;2023-06-22T07:21:51;9.85;;;4.85;;
74158;SDS011;62511;47.970;11.774;2023-06-22T07:24:20;13.45;;;5.28;;
74158;SDS011;62511;47.970;11.774;2023-06-22T07:26:49;9.70;;;5.03;;
74158;SDS011;62511;47.970;11.774;2023-06-22T07:29:17;12.00;;;4.85;;
74158;SDS011;62511;47.970;11.774;2023-06-22T07:31:43;11.45;;;4.72;;
74158;SDS011;62511;47.970;11.774;2023-06-22T07:34:09;10.45;;;4.90;;
74158;SDS011;62511;47.970;11.774;2023-06-22T07:36:35;14.40;;;5.40;;
74158;SDS011;62511;47.970;11.774;2023-06-22T07:39:02;13.52;;;5.00;;
74158;SDS011;62511;47.970;11.774;2023-06-22T07:41:28;12.75;;;5.07;;
74158;SDS011;62511;47.970;11.774;2023-06-22T07:43:54;14.20;;;5.60;;
74158;SDS011;62511;47.970;11.774;2023-06-22T07:46:20;9.98;;;4.65;;
74158;SDS011;62511;47.970;11.774;2023-06-22T07:48:47;13.02;;;5.28;;
74158;SDS011;62511;47.970;11.774;2023-06-22T07:51:13;10.15;;;4.97;;
74158;SDS011;62511;47.970;11.774;2023-06-22T07:53:42;11.77;;;5.03;;
74158;SDS011;62511;47.970;11.774;2023-06-22T07:56:12;12.30;;;5.50;;
74158;SDS011;62511;47.970;11.774;2023-06-22T07:58:38;11.38;;;5.13;;
74158;SDS011;62511;47.970;11.774;2023-06-22T08:01:04;11.35;;;5.28;;
74158;SDS011;62511;47.970;11.774;2023-06-22T08:03:31;13.43;;;5.47;;
74158;SDS011;62511;47.970;11.774;2023-06-22T08:05:57;14.63;;;5.97;;
74158;SDS011;62511;47.970;11.774;2023-06-22T08:08:23;13.15;;;5.68;;
74158;SDS011;62511;47.970;11.774;2023-06-22T08:10:50;10.50;;;4.95;;
74158;SDS011;62511;47.970;11.774;2023-06-22T08:13:16;12.00;;;5.28;;
74158;SDS011;62511;47.970;11.774;2023-06-22T08:15:43;14.32;;;5.28;;
74158;SDS011;62511;47.970;11.774;2023-06-22T08:18:09;9.55;;;4.75;;
74158;SDS011;62511;47.970;11.774;2023-06-22T08:20:34;13.60;;;5.40;;
74158;SDS011;62511;47.970;11.774;2023-06-22T08:23:01;10.40;;;5.03;;
74158;SDS011;62511;47.970;11.774;2023-06-22T08:25:31;16.17;;;5.68;;
74158;SDS011;62511;47.970;11.774;2023-06-22T08:27:57;14.75;;;5.60;;
74158;SDS011;62511;47.970;11.774;2023-06-22T08:30:23;11.55;;;5.30;;
74158;SDS011;62511;47.970;11.774;2023-06-22T08:32:49;10.27;;;5.20;;
74158;SDS011;62511;47.970;11.774;2023-06-22T08:35:15;10.73;;;5.30;;
74158;SDS011;62511;47.970;11.774;2023-06-22T08:37:41;12.00;;;5.32;;
74158;SDS011;62511;47.970;11.774;2023-06-22T08:40:08;11.93;;;5.68;;
74158;SDS011;62511;47.970;11.774;2023-06-22T08:42:36;10.40;;;5.50;;
74158;SDS011;62511;47.970;11.774;2023-06-22T08:45:03;12.88;;;5.38;;
74158;SDS011;62511;47.970;11.774;2023-06-22T08:47:29;10.55;;;4.95;;
74158;SDS011;62511;47.970;11.774;2023-06-22T08:49:55;13.88;;;5.13;;
74158;SDS011;62511;47.970;11.774;2023-06-22T08:52:21;11.07;;;5.10;;
74158;SDS011;62511;47.970;11.774;2023-06-22T08:54:48;12.10;;;5.40;;
74158;SDS011;62511;47.970;11.774;2023-06-22T08:57:14;10.98;;;5.30;;
74158;SDS011;62511;47.970;11.774;2023-06-22T08:59:41;12.73;;;5.90;;
74158;SDS011;62511;47.970;11.774;2023-06-22T09:02:07;12.82;;;5.68;;
74158;SDS011;62511;47.970;11.774;2023-06-22T09:04:33;13.52;;;5.60;;
74158;SDS011;62511;47.970;11.774;2023-06-22T09:07:00;9.77;;;4.90;;
74158;SDS011;62511;47.970;11.774;2023-06-22T09:09:26;11.35;;;5.03;;
74158;SDS011;62511;47.970;11.774;2023-06-22T09:11:52;14.23;;;5.07;;
74158;SDS011;62511;47.970;11.774;2023-06-22T09:14:18;11.88;;;4.95;;
74158;SDS011;62511;47.970;11.774;2023-06-22T09:16:44;13.00;;;5.47;;
74158;SDS011;62511;47.970;11.774;2023-06-22T09:19:10;10.70;;;5.13;;
74158;SDS011;62511;47.970;11.774;2023-06-22T09:27:12;11.63;;;5.00;;
74158;SDS011;62511;47.970;11.774;2023-06-22T09:29:39;10.50;;;5.20;;
74158;SDS011;62511;47.970;11.774;2023-06-22T09:32:05;15.48;;;5.55;;
74158;SDS011;62511;47.970;11.774;2023-06-22T09:34:32;11.35;;;5.57;;
74158;SDS011;62511;47.970;11.774;2023-06-22T09:39:26;10.95;;;4.85;;
74158;SDS011;62511;47.970;11.774;2023-06-22T09:41:52;10.48;;;4.97;;
74158;SDS011;62511;47.970;11.774;2023-06-22T09:44:18;13.10;;;5.05;;
74158;SDS011;62511;47.970;11.774;2023-06-22T09:46:46;11.63;;;4.85;;
74158;SDS011;62511;47.970;11.774;2023-06-22T09:49:12;14.52;;;5.47;;
74158;SDS011;62511;47.970;11.774;2023-06-22T09:51:38;10.82;;;4.95;;
74158;SDS011;62511;47.970;11.774;2023-06-22T09:54:05;13.50;;;5.07;;
74158;SDS011;62511;47.970;11.774;2023-06-22T09:56:31;11.73;;;5.03;;
74158;SDS011;62511;47.970;11.774;2023-06-22T09:58:57;11.15;;;4.72;;
74158;SDS011;62511;47.970;11.774;2023-06-22T10:01:24;11.15;;;4.68;;
74158;SDS011;62511;47.970;11.774;2023-06-22T10:03:52;13.35;;;5.07;;
74158;SDS011;62511;47.970;11.774;2023-06-22T10:06:22;12.77;;;4.82;;
74158;SDS011;62511;47.970;11.774;2023-06-22T10:08:50;14.55;;;4.90;;
74158;SDS011;62511;47.970;11.774;2023-06-22T10:11:16;15.70;;;5.13;;
74158;SDS011;62511;47.970;11.774;2023-06-22T10:13:43;13.60;;;4.80;;
74158;SDS011;62511;47.970;11.774;2023-06-22T10:18:35;10.15;;;4.85;;
74158;SDS011;62511;47.970;11.774;2023-06-22T10:21:02;11.27;;;4.32;;
74158;SDS011;62511;47.970;11.774;2023-06-22T10:23:28;12.65;;;4.70;;
74158;SDS011;62511;47.970;11.774;2023-06-22T10:28:23;9.63;;;4.97;;
74158;SDS011;62511;47.970;11.774;2023-06-22T10:33:15;13.20;;;5.10;;
74158;SDS011;62511;47.970;11.774;2023-06-22T10:35:42;12.27;;;4.82;;
74158;SDS011;62511;47.970;11.774;2023-06-22T10:38:08;11.57;;;5.22;;
74158;SDS011;62511;47.970;11.774;2023-06-22T10:40:35;11.15;;;5.32;;
74158;SDS011;62511;47.970;11.774;2023-06-22T10:43:01;9.63;;;4.65;;
74158;SDS011;62511;47.970;11.774;2023-06-22T10:45:27;13.38;;;4.90;;
74158;SDS011;62511;47.970;11.774;2023-06-22T10:47:54;9.30;;;4.70;;
74158;SDS011;62511;47.970;11.774;2023-06-22T10:50:20;15.00;;;4.82;;
74158;SDS011;62511;47.970;11.774;2023-06-22T10:52:48;13.07;;;4.95;;
74158;SDS011;62511;47.970;11.774;2023-06-22T10:55:15;11.57;;;4.70;;
74158;SDS011;62511;47.970;11.774;2023-06-22T11:00:09;11.63;;;5.32;;
74158;SDS011;62511;47.970;11.774;2023-06-22T11:02:37;9.88;;;5.03;;
74158;SDS011;62511;47.970;11.774;2023-06-22T11:05:03;11.55;;;4.70;;
74158;SDS011;62511;47.970;11.774;2023-06-22T11:07:31;12.63;;;5.13;;
74158;SDS011;62511;47.970;11.774;2023-06-22T11:09:58;12.10;;;4.97;;
74158;SDS011;62511;47.970;11.774;2023-06-22T11:12:24;14.38;;;4.97;;
74158;SDS011;62511;47.970;11.774;2023-06-22T11:17:17;9.30;;;4.38;;
74158;SDS011;62511;47.970;11.774;2023-06-22T11:19:44;10.48;;;4.97;;
74158;SDS011;62511;47.970;11.774;2023-06-22T11:22:10;9.30;;;4.43;;
74158;SDS011;62511;47.970;11.774;2023-06-22T11:27:02;12.98;;;5.00;;
74158;SDS011;62511;47.970;11.774;2023-06-22T11:29:29;14.38;;;4.70;;
74158;SDS011;62511;47.970;11.774;2023-06-22T11:31:56;12.85;;;5.43;;
74158;SDS011;62511;47.970;11.774;2023-06-22T11:34:22;10.65;;;5.03;;
74158;SDS011;62511;47.970;11.774;2023-06-22T11:36:49;13.48;;;4.95;;
74158;SDS011;62511;47.970;11.774;2023-06-22T11:39:15;13.50;;;4.43;;
74158;SDS011;62511;47.970;11.774;2023-06-22T11:41:42;12.52;;;4.38;;
74158;SDS011;62511;47.970;11.774;2023-06-22T11:44:08;15.32;;;4.85;;
74158;SDS011;62511;47.970;11.774;2023-06-22T11:46:34;13.38;;;4.93;;
74158;SDS011;62511;47.970;11.774;2023-06-22T11:49:01;11.07;;;4.25;;
74158;SDS011;62511;47.970;11.774;2023-06-22T11:51:27;10.95;;;4.75;;
74158;SDS011;62511;47.970;11.774;2023-06-22T11:53:56;13.77;;;5.13;;
74158;SDS011;62511;47.970;11.774;2023-06-22T11:56:24;16.50;;;5.28;;
74158;SDS011;62511;47.970;11.774;2023-06-22T11:58:50;15.32;;;5.10;;
74158;SDS011;62511;47.970;11.774;2023-06-22T12:01:17;10.65;;;4.75;;
74158;SDS011;62511;47.970;11.774;2023-06-22T12:03:43;16.25;;;5.32;;
74158;SDS011;62511;47.970;11.774;2023-06-22T12:06:09;12.75;;;4.68;;
74158;SDS011;62511;47.970;11.774;2023-06-22T12:08:36;10.75;;;4.07;;
74158;SDS011;62511;47.970;11.774;2023-06-22T12:11:04;12.63;;;4.72;;
74158;SDS011;62511;47.970;11.774;2023-06-22T12:13:30;9.30;;;4.45;;
74158;SDS011;62511;47.970;11.774;2023-06-22T12:15:57;11.27;;;4.97;;
74158;SDS011;62511;47.970;11.774;2023-06-22T12:18:23;13.45;;;4.93;;
74158;SDS011;62511;47.970;11.774;2023-06-22T12:20:50;9.43;;;4.60;;
74158;SDS011;62511;47.970;11.774;2023-06-22T12:23:16;14.18;;;4.50;;
74158;SDS011;62511;47.970;11.774;2023-06-22T12:25:44;9.07;;;4.50;;
74158;SDS011;62511;47.970;11.774;2023-06-22T12:28:10;10.25;;;4.55;;
74158;SDS011;62511;47.970;11.774;2023-06-22T12:30:37;15.70;;;5.05;;
74158;SDS011;62511;47.970;11.774;2023-06-22T12:33:03;14.07;;;4.40;;
74158;SDS011;62511;47.970;11.774;2023-06-22T12:35:30;16.48;;;4.85;;
74158;SDS011;62511;47.970;11.774;2023-06-22T12:37:56;13.48;;;4.78;;
74158;SDS011;62511;47.970;11.774;2023-06-22T12:40:23;13.20;;;5.00;;
74158;SDS011;62511;47.970;11.774;2023-06-22T12:42:49;11.32;;;4.93;;
74158;SDS011;62511;47.970;11.774;2023-06-22T12:45:15;13.45;;;4.70;;
74158;SDS011;62511;47.970;11.774;2023-06-22T12:47:42;11.95;;;4.63;;
74158;SDS011;62511;47.970;11.774;2023-06-22T12:50:08;13.55;;;4.97;;
74158;SDS011;62511;47.970;11.774;2023-06-22T12:52:36;12.30;;;4.43;;
74158;SDS011;62511;47.970;11.774;2023-06-22T12:55:06;15.75;;;4.47;;
74158;SDS011;62511;47.970;11.774;2023-06-22T12:57:33;12.00;;;4.32;;
74158;SDS011;62511;47.970;11.774;2023-06-22T12:59:59;13.70;;;4.47;;
74158;SDS011;62511;47.970;11.774;2023-06-22T13:02:26;12.40;;;4.60;;
74158;SDS011;62511;47.970;11.774;2023-06-22T13:04:52;10.68;;;4.97;;
74158;SDS011;62511;47.970;11.774;2023-06-22T13:07:18;9.85;;;4.47;;
74158;SDS011;62511;47.970;11.774;2023-06-22T13:09:45;11.30;;;4.68;;
74158;SDS011;62511;47.970;11.774;2023-06-22T13:12:11;8.88;;;4.53;;
74158;SDS011;62511;47.970;11.774;2023-06-22T13:14:38;12.27;;;4.80;;
74158;SDS011;62511;47.970;11.774;2023-06-22T13:17:05;10.43;;;4.82;;
74158;SDS011;62511;47.970;11.774;2023-06-22T13:19:31;10.95;;;4.65;;
74158;SDS011;62511;47.970;11.774;2023-06-22T13:21:58;15.27;;;5.10;;
74158;SDS011;62511;47.970;11.774;2023-06-22T13:24:25;10.90;;;4.00;;
74158;SDS011;62511;47.970;11.774;2023-06-22T13:29:17;17.27;;;4.60;;
74158;SDS011;62511;47.970;11.774;2023-06-22T13:31:43;11.57;;;4.57;;
74158;SDS011;62511;47.970;11.774;2023-06-22T13:34:10;12.30;;;4.28;;
74158;SDS011;62511;47.970;11.774;2023-06-22T13:36:37;9.60;;;4.65;;
74158;SDS011;62511;47.970;11.774;2023-06-22T13:39:03;9.52;;;4.10;;
74158;SDS011;62511;47.970;11.774;2023-06-22T13:41:30;14.70;;;4.63;;
74158;SDS011;62511;47.970;11.774;2023-06-22T13:43:56;11.45;;;4.70;;
74158;SDS011;62511;47.970;11.774;2023-06-22T13:46:22;11.45;;;4.63;;
74158;SDS011;62511;47.970;11.774;2023-06-22T13:48:50;12.80;;;4.40;;
74158;SDS011;62511;47.970;11.774;2023-06-22T13:51:17;11.07;;;4.13;;
74158;SDS011;62511;47.970;11.774;2023-06-22T13:53:43;13.02;;;4.55;;
74158;SDS011;62511;47.970;11.774;2023-06-22T13:56:10;12.40;;;4.63;;
74158;SDS011;62511;47.970;11.774;2023-06-22T13:58:36;11.77;;;4.30;;
74158;SDS011;62511;47.970;11.774;2023-06-22T14:01:03;8.98;;;4.13;;
74158;SDS011;62511;47.970;11.774;2023-06-22T14:03:29;10.45;;;4.40;;
74158;SDS011;62511;47.970;11.774;2023-06-22T14:05:55;13.57;;;4.07;;
74158;SDS011;62511;47.970;11.774;2023-06-22T14:08:23;13.00;;;4.32;;
74158;SDS011;62511;47.970;11.774;2023-06-22T14:10:50;12.45;;;4.57;;
74158;SDS011;62511;47.970;11.774;2023-06-22T14:13:16;11.73;;;4.30;;
74158;SDS011;62511;47.970;11.774;2023-06-22T14:15:43;13.52;;;4.50;;
74158;SDS011;62511;47.970;11.774;2023-06-22T14:18:09;12.27;;;4.47;;
74158;SDS011;62511;47.970;11.774;2023-06-22T14:20:36;11.13;;;4.18;;
74158;SDS011;62511;47.970;11.774;2023-06-22T14:23:03;11.90;;;4.18;;
74158;SDS011;62511;47.970;11.774;2023-06-22T14:25:28;8.75;;;3.75;;
74158;SDS011;62511;47.970;11.774;2023-06-22T14:27:55;11.55;;;3.97;;
74158;SDS011;62511;47.970;11.774;2023-06-22T14:30:21;10.60;;;4.05;;
74158;SDS011;62511;47.970;11.774;2023-06-22T14:32:48;10.52;;;4.20;;
74158;SDS011;62511;47.970;11.774;2023-06-22T14:35:14;16.88;;;4.45;;
74158;SDS011;62511;47.970;11.774;2023-06-22T14:40:07;12.25;;;3.85;;
74158;SDS011;62511;47.970;11.774;2023-06-22T14:42:33;10.65;;;4.45;;
74158;SDS011;62511;47.970;11.774;2023-06-22T14:45:00;12.38;;;3.97;;
74158;SDS011;62511;47.970;11.774;2023-06-22T14:49:53;12.27;;;4.05;;
74158;SDS011;62511;47.970;11.774;2023-06-22T14:52:20;10.68;;;4.32;;
74158;SDS011;62511;47.970;11.774;2023-06-22T14:54:47;15.60;;;4.05;;
74158;SDS011;62511;47.970;11.774;2023-06-22T14:57:13;11.40;;;4.30;;
74158;SDS011;62511;47.970;11.774;2023-06-22T14:59:43;13.15;;;4.38;;
74158;SDS011;62511;47.970;11.774;2023-06-22T15:04:35;10.15;;;3.83;;
74158;SDS011;62511;47.970;11.774;2023-06-22T15:07:01;10.10;;;3.88;;
74158;SDS011;62511;47.970;11.774;2023-06-22T15:09:29;12.65;;;4.03;;
74158;SDS011;62511;47.970;11.774;2023-06-22T15:11:55;11.60;;;3.95;;
74158;SDS011;62511;47.970;11.774;2023-06-22T15:14:23;12.73;;;4.00;;
74158;SDS011;62511;47.970;11.774;2023-06-22T15:16:50;12.57;;;4.18;;
74158;SDS011;62511;47.970;11.774;2023-06-22T15:19:16;11.02;;;4.00;;
74158;SDS011;62511;47.970;11.774;2023-06-22T15:21:43;13.15;;;4.05;;
74158;SDS011;62511;47.970;11.774;2023-06-22T15:24:09;11.13;;;3.95;;
74158;SDS011;62511;47.970;11.774;2023-06-22T15:26:35;11.90;;;3.58;;
74158;SDS011;62511;47.970;11.774;2023-06-22T15:29:02;11.07;;;4.38;;
74158;SDS011;62511;47.970;11.774;2023-06-22T15:31:28;8.40;;;3.65;;
74158;SDS011;62511;47.970;11.774;2023-06-22T15:33:55;11.30;;;4.30;;
74158;SDS011;62511;47.970;11.774;2023-06-22T15:36:21;7.70;;;3.67;;